createdAt,value
2022-09-16T00:07:26.703Z,13.2
2022-09-16T00:17:27.574Z,13.1
2022-09-16T00:27:28.449Z,13.1
2022-09-16T00:37:28.736Z,13
2022-09-16T00:47:29.435Z,12.9
2022-09-16T00:57:30.433Z,12.9
2022-09-16T01:07:30.583Z,12.8
2022-09-16T01:17:30.848Z,12.9
2022-09-16T01:27:31.243Z,12.9
2022-09-16T01:47:32.295Z,12.9
2022-09-16T01:57:33.358Z,12.9
2022-09-16T02:07:33.539Z,12.9
2022-09-16T02:17:33.998Z,13
2022-09-16T02:27:34.146Z,12.9
2022-09-16T02:37:35.193Z,12.8
2022-09-16T02:47:35.926Z,12.8
2022-09-16T02:57:36.434Z,12.8
2022-09-16T03:07:37.426Z,12.7
2022-09-16T03:17:37.752Z,12.7
2022-09-16T03:37:39.451Z,12.6
2022-09-16T03:47:39.687Z,12.5
2022-09-16T03:57:39.952Z,12.5
2022-09-16T04:17:40.987Z,12.4
2022-09-16T04:27:41.469Z,12.5
2022-09-16T04:37:41.881Z,12.4
2022-09-16T04:47:42.240Z,12.4
2022-09-16T04:57:42.742Z,12.3
2022-09-16T05:07:43.112Z,12.4
2022-09-16T05:17:50.199Z,12.4
2022-09-16T05:27:44.456Z,12.5
2022-09-16T05:37:45.083Z,12.5
2022-09-16T05:47:45.435Z,12.5
2022-09-16T06:07:47.352Z,12.7
2022-09-16T06:17:47.516Z,12.7
2022-09-16T06:27:48.575Z,13
2022-09-16T06:37:48.866Z,13.1
2022-09-16T06:47:49.854Z,13.1
2022-09-16T06:57:50.726Z,13.1
2022-09-16T07:07:51.577Z,13
2022-09-16T07:17:52.624Z,13.1
2022-09-16T07:27:53.392Z,13
2022-09-16T07:37:54.395Z,13.1
2022-09-16T07:47:55.182Z,13.3
2022-09-16T07:57:55.411Z,13.5
2022-09-16T08:07:56.396Z,13.8
2022-09-16T08:17:56.549Z,14
2022-09-16T08:27:56.852Z,14
2022-09-16T08:37:57.564Z,14.1
2022-09-16T08:47:58.450Z,14.6
2022-09-16T08:57:59.416Z,15
2022-09-16T09:08:00.310Z,14.9
2022-09-16T09:18:00.869Z,14.7
2022-09-16T09:38:01.547Z,15.3
2022-09-16T09:48:01.917Z,15.6
2022-09-16T09:58:02.159Z,15.8
2022-09-16T10:08:02.379Z,15.6
2022-09-16T10:28:03.977Z,15.8
2022-09-16T10:38:04.798Z,15.6
2022-09-16T10:48:07.084Z,13.8
2022-09-16T10:58:05.913Z,13.5
2022-09-16T11:08:06.568Z,14.6
2022-09-16T11:18:06.690Z,14.9
2022-09-16T11:20:45.085Z,14.9
2022-09-16T11:28:15.442Z,15.3
2022-09-16T11:38:16.204Z,16
2022-09-16T11:48:16.748Z,16.6
2022-09-16T11:58:17.320Z,14.7
2022-09-16T12:08:18.044Z,12.9
2022-09-16T12:18:18.172Z,13.4
2022-09-16T12:38:19.785Z,12
2022-09-16T12:58:21.703Z,12
2022-09-16T13:08:21.879Z,12.5
2022-09-16T13:18:22.746Z,12.7
2022-09-16T13:38:24.721Z,12.9
2022-09-16T13:48:25.079Z,13
2022-09-16T13:58:26.120Z,12.5
2022-09-16T14:08:26.224Z,12.7
2022-09-16T14:18:26.763Z,13.1
2022-09-16T14:28:27.563Z,13.5
2022-09-16T15:28:30.868Z,14.5
2022-09-16T16:58:36.174Z,12.4
2022-09-16T17:18:37.567Z,12.2
2022-09-16T18:18:40.591Z,11.8
2022-09-16T18:28:58.472Z,11.8
2022-09-16T18:38:41.825Z,11.8
2022-09-16T18:58:42.411Z,12
2022-09-16T19:08:42.794Z,12.1
2022-09-16T19:18:43.508Z,12.4
2022-09-16T19:38:44.477Z,12.1
2022-09-16T19:48:44.717Z,12
2022-09-16T19:58:45.647Z,11.9
2022-09-16T20:18:47.021Z,12
2022-09-16T20:28:47.174Z,11.5
2022-09-16T20:38:47.693Z,11.4
2022-09-16T20:48:48.694Z,11.3
2022-09-16T20:58:48.993Z,11.2
2022-09-16T21:08:49.659Z,11.2
2022-09-16T21:18:50.435Z,11.2
2022-09-16T21:28:51.202Z,11.2
2022-09-16T21:38:51.365Z,11.2
2022-09-16T21:48:51.978Z,11.2
2022-09-16T21:58:52.703Z,11.2
2022-09-16T22:08:53.154Z,11.2
2022-09-16T22:18:53.837Z,11.3
2022-09-16T22:28:54.073Z,11.2
2022-09-16T22:38:54.526Z,11.1
2022-09-16T22:48:55.259Z,10.9
2022-09-16T22:58:55.844Z,10.8
2022-09-16T23:08:56.498Z,10.8
2022-09-16T23:18:57.191Z,10.6
2022-09-16T23:28:57.712Z,10.6
2022-09-16T23:38:58.199Z,10.5
2022-09-16T23:48:58.753Z,10.5
2022-09-16T23:58:59.675Z,10.5
